sensor_id;sensor_type;location;lat;lon;timestamp;P1;durP1;ratioP1;P2;durP2;ratioP2
69750;SDS011;57335;52.288;6.056;2023-02-13T00:00:29;29.38;;;10.45;;
69750;SDS011;57335;52.288;6.056;2023-02-13T00:02:56;26.63;;;10.32;;
69750;SDS011;57335;52.288;6.056;2023-02-13T00:05:22;25.00;;;10.02;;
69750;SDS011;57335;52.288;6.056;2023-02-13T00:07:49;26.67;;;10.13;;
69750;SDS011;57335;52.288;6.056;2023-02-13T00:10:15;25.98;;;10.15;;
69750;SDS011;57335;52.288;6.056;2023-02-13T00:12:42;28.17;;;10.10;;
69750;SDS011;57335;52.288;6.056;2023-02-13T00:15:09;26.85;;;9.82;;
69750;SDS011;57335;52.288;6.056;2023-02-13T00:17:35;28.55;;;9.70;;
69750;SDS011;57335;52.288;6.056;2023-02-13T00:20:02;29.02;;;10.45;;
69750;SDS011;57335;52.288;6.056;2023-02-13T00:22:29;26.95;;;10.40;;
69750;SDS011;57335;52.288;6.056;2023-02-13T00:24:59;26.33;;;9.80;;
69750;SDS011;57335;52.288;6.056;2023-02-13T00:27:26;25.77;;;9.65;;
69750;SDS011;57335;52.288;6.056;2023-02-13T00:29:52;24.67;;;9.88;;
69750;SDS011;57335;52.288;6.056;2023-02-13T00:32:19;27.42;;;9.88;;
69750;SDS011;57335;52.288;6.056;2023-02-13T00:34:45;26.65;;;9.45;;
69750;SDS011;57335;52.288;6.056;2023-02-13T00:37:12;27.25;;;10.23;;
69750;SDS011;57335;52.288;6.056;2023-02-13T00:39:38;24.27;;;9.88;;
69750;SDS011;57335;52.288;6.056;2023-02-13T00:42:05;25.10;;;9.57;;
69750;SDS011;57335;52.288;6.056;2023-02-13T00:44:31;28.95;;;10.38;;
69750;SDS011;57335;52.288;6.056;2023-02-13T00:46:58;31.35;;;10.15;;
69750;SDS011;57335;52.288;6.056;2023-02-13T00:49:24;26.30;;;10.30;;
69750;SDS011;57335;52.288;6.056;2023-02-13T00:51:51;27.50;;;10.30;;
69750;SDS011;57335;52.288;6.056;2023-02-13T00:54:18;30.45;;;10.80;;
69750;SDS011;57335;52.288;6.056;2023-02-13T00:56:44;26.35;;;9.60;;
69750;SDS011;57335;52.288;6.056;2023-02-13T00:59:11;28.17;;;9.95;;
69750;SDS011;57335;52.288;6.056;2023-02-13T01:01:37;23.30;;;9.25;;
69750;SDS011;57335;52.288;6.056;2023-02-13T01:04:04;29.65;;;10.50;;
69750;SDS011;57335;52.288;6.056;2023-02-13T01:06:30;28.77;;;9.90;;
69750;SDS011;57335;52.288;6.056;2023-02-13T01:08:57;27.52;;;10.43;;
69750;SDS011;57335;52.288;6.056;2023-02-13T01:11:23;26.58;;;9.90;;
69750;SDS011;57335;52.288;6.056;2023-02-13T01:13:50;27.15;;;10.00;;
69750;SDS011;57335;52.288;6.056;2023-02-13T01:16:16;28.33;;;9.75;;
69750;SDS011;57335;52.288;6.056;2023-02-13T01:18:43;28.02;;;10.45;;
69750;SDS011;57335;52.288;6.056;2023-02-13T01:21:13;26.80;;;10.75;;
69750;SDS011;57335;52.288;6.056;2023-02-13T01:23:42;30.30;;;10.90;;
69750;SDS011;57335;52.288;6.056;2023-02-13T01:26:15;28.77;;;10.80;;
69750;SDS011;57335;52.288;6.056;2023-02-13T01:28:43;26.85;;;10.20;;
69750;SDS011;57335;52.288;6.056;2023-02-13T01:31:10;24.45;;;9.15;;
69750;SDS011;57335;52.288;6.056;2023-02-13T01:33:36;28.95;;;10.15;;
69750;SDS011;57335;52.288;6.056;2023-02-13T01:36:09;27.92;;;9.88;;
69750;SDS011;57335;52.288;6.056;2023-02-13T01:38:37;28.23;;;10.50;;
69750;SDS011;57335;52.288;6.056;2023-02-13T01:41:04;27.52;;;9.63;;
69750;SDS011;57335;52.288;6.056;2023-02-13T01:46:25;26.58;;;9.93;;
69750;SDS011;57335;52.288;6.056;2023-02-13T01:48:57;24.20;;;9.30;;
69750;SDS011;57335;52.288;6.056;2023-02-13T01:51:29;23.63;;;9.02;;
69750;SDS011;57335;52.288;6.056;2023-02-13T01:54:07;30.83;;;10.95;;
69750;SDS011;57335;52.288;6.056;2023-02-13T01:56:45;28.05;;;10.68;;
69750;SDS011;57335;52.288;6.056;2023-02-13T01:59:17;30.25;;;10.70;;
69750;SDS011;57335;52.288;6.056;2023-02-13T02:01:46;27.00;;;9.77;;
69750;SDS011;57335;52.288;6.056;2023-02-13T02:04:15;27.35;;;9.60;;
69750;SDS011;57335;52.288;6.056;2023-02-13T02:06:49;25.27;;;9.95;;
69750;SDS011;57335;52.288;6.056;2023-02-13T02:09:21;30.02;;;10.20;;
69750;SDS011;57335;52.288;6.056;2023-02-13T02:14:28;30.35;;;10.23;;
69750;SDS011;57335;52.288;6.056;2023-02-13T02:16:54;28.67;;;9.80;;
69750;SDS011;57335;52.288;6.056;2023-02-13T02:30:23;30.98;;;11.20;;
69750;SDS011;57335;52.288;6.056;2023-02-13T02:32:57;29.15;;;10.52;;
69750;SDS011;57335;52.288;6.056;2023-02-13T02:38:26;28.83;;;9.95;;
69750;SDS011;57335;52.288;6.056;2023-02-13T02:41:18;32.97;;;11.20;;
69750;SDS011;57335;52.288;6.056;2023-02-13T02:47:25;28.58;;;9.43;;
69750;SDS011;57335;52.288;6.056;2023-02-13T02:49:37;29.48;;;10.43;;
69750;SDS011;57335;52.288;6.056;2023-02-13T02:52:12;29.65;;;10.90;;
69750;SDS011;57335;52.288;6.056;2023-02-13T02:55:03;28.98;;;9.50;;
69750;SDS011;57335;52.288;6.056;2023-02-13T02:57:40;29.52;;;9.77;;
69750;SDS011;57335;52.288;6.056;2023-02-13T03:00:11;27.17;;;10.13;;
69750;SDS011;57335;52.288;6.056;2023-02-13T03:02:38;30.20;;;9.98;;
69750;SDS011;57335;52.288;6.056;2023-02-13T03:05:07;27.52;;;10.13;;
69750;SDS011;57335;52.288;6.056;2023-02-13T03:07:43;30.83;;;10.65;;
69750;SDS011;57335;52.288;6.056;2023-02-13T03:10:11;29.52;;;11.00;;
69750;SDS011;57335;52.288;6.056;2023-02-13T03:12:48;29.60;;;9.98;;
69750;SDS011;57335;52.288;6.056;2023-02-13T03:15:19;27.38;;;9.70;;
69750;SDS011;57335;52.288;6.056;2023-02-13T03:17:47;29.38;;;10.48;;
69750;SDS011;57335;52.288;6.056;2023-02-13T03:23:12;30.73;;;10.43;;
69750;SDS011;57335;52.288;6.056;2023-02-13T03:28:30;32.20;;;10.55;;
69750;SDS011;57335;52.288;6.056;2023-02-13T03:36:46;28.08;;;9.73;;
69750;SDS011;57335;52.288;6.056;2023-02-13T03:40:25;33.40;;;9.90;;
69750;SDS011;57335;52.288;6.056;2023-02-13T03:42:31;32.17;;;10.45;;
69750;SDS011;57335;52.288;6.056;2023-02-13T03:44:59;26.20;;;9.60;;
69750;SDS011;57335;52.288;6.056;2023-02-13T03:49:56;30.90;;;9.93;;
69750;SDS011;57335;52.288;6.056;2023-02-13T03:55:27;27.60;;;10.40;;
69750;SDS011;57335;52.288;6.056;2023-02-13T03:57:59;29.42;;;9.50;;
69750;SDS011;57335;52.288;6.056;2023-02-13T04:00:35;29.05;;;9.25;;
69750;SDS011;57335;52.288;6.056;2023-02-13T04:03:07;29.10;;;9.80;;
69750;SDS011;57335;52.288;6.056;2023-02-13T04:05:52;30.50;;;10.57;;
69750;SDS011;57335;52.288;6.056;2023-02-13T04:08:22;30.63;;;10.30;;
69750;SDS011;57335;52.288;6.056;2023-02-13T04:10:50;29.83;;;10.27;;
69750;SDS011;57335;52.288;6.056;2023-02-13T04:16:12;28.65;;;9.40;;
69750;SDS011;57335;52.288;6.056;2023-02-13T04:18:45;27.55;;;9.95;;
69750;SDS011;57335;52.288;6.056;2023-02-13T04:21:12;28.40;;;10.50;;
69750;SDS011;57335;52.288;6.056;2023-02-13T04:23:39;29.70;;;9.93;;
69750;SDS011;57335;52.288;6.056;2023-02-13T04:26:07;24.38;;;8.48;;
69750;SDS011;57335;52.288;6.056;2023-02-13T04:28:40;23.45;;;9.48;;
69750;SDS011;57335;52.288;6.056;2023-02-13T04:31:06;30.30;;;9.70;;
69750;SDS011;57335;52.288;6.056;2023-02-13T04:33:33;30.35;;;9.98;;
69750;SDS011;57335;52.288;6.056;2023-02-13T04:38:25;28.85;;;9.50;;
69750;SDS011;57335;52.288;6.056;2023-02-13T04:40:52;28.27;;;10.18;;
69750;SDS011;57335;52.288;6.056;2023-02-13T04:45:48;34.30;;;10.90;;
69750;SDS011;57335;52.288;6.056;2023-02-13T04:48:15;27.20;;;9.07;;
69750;SDS011;57335;52.288;6.056;2023-02-13T04:53:08;28.80;;;9.77;;
69750;SDS011;57335;52.288;6.056;2023-02-13T04:55:34;27.77;;;9.98;;
69750;SDS011;57335;52.288;6.056;2023-02-13T04:58:00;27.75;;;8.95;;
69750;SDS011;57335;52.288;6.056;2023-02-13T05:02:54;32.30;;;10.48;;
69750;SDS011;57335;52.288;6.056;2023-02-13T05:05:26;30.95;;;10.27;;
69750;SDS011;57335;52.288;6.056;2023-02-13T05:07:52;31.23;;;10.45;;
69750;SDS011;57335;52.288;6.056;2023-02-13T05:12:46;30.33;;;10.50;;
69750;SDS011;57335;52.288;6.056;2023-02-13T05:15:13;27.92;;;9.57;;
69750;SDS011;57335;52.288;6.056;2023-02-13T05:17:42;28.80;;;10.00;;
69750;SDS011;57335;52.288;6.056;2023-02-13T05:20:09;29.65;;;10.05;;
69750;SDS011;57335;52.288;6.056;2023-02-13T05:22:35;32.65;;;10.00;;
69750;SDS011;57335;52.288;6.056;2023-02-13T05:25:02;28.52;;;9.77;;
69750;SDS011;57335;52.288;6.056;2023-02-13T05:27:29;31.92;;;10.90;;
69750;SDS011;57335;52.288;6.056;2023-02-13T05:29:55;23.05;;;8.45;;
69750;SDS011;57335;52.288;6.056;2023-02-13T05:32:21;32.47;;;10.10;;
69750;SDS011;57335;52.288;6.056;2023-02-13T05:34:48;26.42;;;8.55;;
69750;SDS011;57335;52.288;6.056;2023-02-13T05:37:14;22.35;;;7.35;;
69750;SDS011;57335;52.288;6.056;2023-02-13T05:39:40;27.33;;;9.05;;
69750;SDS011;57335;52.288;6.056;2023-02-13T05:42:07;20.13;;;7.72;;
69750;SDS011;57335;52.288;6.056;2023-02-13T05:44:33;20.08;;;7.57;;
69750;SDS011;57335;52.288;6.056;2023-02-13T05:47:00;22.77;;;7.97;;
69750;SDS011;57335;52.288;6.056;2023-02-13T05:51:52;25.52;;;8.23;;
69750;SDS011;57335;52.288;6.056;2023-02-13T05:54:19;26.15;;;8.75;;
69750;SDS011;57335;52.288;6.056;2023-02-13T05:56:45;21.73;;;7.70;;
69750;SDS011;57335;52.288;6.056;2023-02-13T05:59:12;21.73;;;8.20;;
69750;SDS011;57335;52.288;6.056;2023-02-13T06:01:38;27.75;;;8.52;;
69750;SDS011;57335;52.288;6.056;2023-02-13T06:06:31;27.20;;;9.50;;
69750;SDS011;57335;52.288;6.056;2023-02-13T06:11:24;25.73;;;9.50;;
69750;SDS011;57335;52.288;6.056;2023-02-13T06:13:50;26.90;;;10.43;;
69750;SDS011;57335;52.288;6.056;2023-02-13T06:16:16;26.55;;;9.18;;
69750;SDS011;57335;52.288;6.056;2023-02-13T06:18:43;26.80;;;9.07;;
69750;SDS011;57335;52.288;6.056;2023-02-13T06:23:36;26.45;;;9.30;;
69750;SDS011;57335;52.288;6.056;2023-02-13T06:26:03;28.80;;;9.50;;
69750;SDS011;57335;52.288;6.056;2023-02-13T06:28:31;28.73;;;9.55;;
69750;SDS011;57335;52.288;6.056;2023-02-13T06:30:58;24.17;;;8.48;;
69750;SDS011;57335;52.288;6.056;2023-02-13T06:33:25;29.67;;;9.90;;
69750;SDS011;57335;52.288;6.056;2023-02-13T06:35:51;29.85;;;10.25;;
69750;SDS011;57335;52.288;6.056;2023-02-13T06:38:18;28.00;;;10.50;;
69750;SDS011;57335;52.288;6.056;2023-02-13T06:40:45;22.98;;;8.05;;
69750;SDS011;57335;52.288;6.056;2023-02-13T06:43:12;28.00;;;9.73;;
69750;SDS011;57335;52.288;6.056;2023-02-13T06:45:39;27.15;;;9.82;;
69750;SDS011;57335;52.288;6.056;2023-02-13T06:48:06;29.17;;;10.43;;
69750;SDS011;57335;52.288;6.056;2023-02-13T06:50:32;27.05;;;9.13;;
69750;SDS011;57335;52.288;6.056;2023-02-13T06:52:59;32.35;;;10.63;;
69750;SDS011;57335;52.288;6.056;2023-02-13T06:55:26;31.35;;;9.93;;
69750;SDS011;57335;52.288;6.056;2023-02-13T06:57:53;27.40;;;10.55;;
69750;SDS011;57335;52.288;6.056;2023-02-13T07:00:20;29.65;;;9.15;;
69750;SDS011;57335;52.288;6.056;2023-02-13T07:02:46;30.80;;;10.18;;
69750;SDS011;57335;52.288;6.056;2023-02-13T07:05:13;29.25;;;9.95;;
69750;SDS011;57335;52.288;6.056;2023-02-13T07:07:40;24.85;;;8.82;;
69750;SDS011;57335;52.288;6.056;2023-02-13T07:10:08;29.30;;;9.23;;
69750;SDS011;57335;52.288;6.056;2023-02-13T07:12:37;24.00;;;8.45;;
69750;SDS011;57335;52.288;6.056;2023-02-13T07:15:03;27.63;;;9.55;;
69750;SDS011;57335;52.288;6.056;2023-02-13T07:17:30;24.77;;;8.95;;
69750;SDS011;57335;52.288;6.056;2023-02-13T07:19:57;24.38;;;8.93;;
69750;SDS011;57335;52.288;6.056;2023-02-13T07:22:23;25.33;;;7.88;;
69750;SDS011;57335;52.288;6.056;2023-02-13T07:24:50;24.00;;;8.80;;
69750;SDS011;57335;52.288;6.056;2023-02-13T07:29:42;28.15;;;9.90;;
69750;SDS011;57335;52.288;6.056;2023-02-13T07:32:09;28.60;;;9.27;;
69750;SDS011;57335;52.288;6.056;2023-02-13T07:34:35;29.73;;;8.88;;
69750;SDS011;57335;52.288;6.056;2023-02-13T07:37:01;27.85;;;9.60;;
69750;SDS011;57335;52.288;6.056;2023-02-13T07:39:28;32.75;;;9.63;;
69750;SDS011;57335;52.288;6.056;2023-02-13T07:41:54;27.00;;;8.80;;
69750;SDS011;57335;52.288;6.056;2023-02-13T07:44:20;24.48;;;9.13;;
69750;SDS011;57335;52.288;6.056;2023-02-13T07:46:47;30.65;;;9.85;;
69750;SDS011;57335;52.288;6.056;2023-02-13T07:49:13;28.67;;;10.40;;
69750;SDS011;57335;52.288;6.056;2023-02-13T07:51:40;29.83;;;10.65;;
69750;SDS011;57335;52.288;6.056;2023-02-13T07:54:06;31.38;;;11.48;;
69750;SDS011;57335;52.288;6.056;2023-02-13T07:56:32;35.72;;;12.40;;
69750;SDS011;57335;52.288;6.056;2023-02-13T07:58:59;34.70;;;11.85;;
69750;SDS011;57335;52.288;6.056;2023-02-13T08:01:25;32.03;;;10.48;;
69750;SDS011;57335;52.288;6.056;2023-02-13T08:03:52;30.30;;;9.63;;
69750;SDS011;57335;52.288;6.056;2023-02-13T08:06:18;31.65;;;10.25;;
69750;SDS011;57335;52.288;6.056;2023-02-13T08:08:46;30.02;;;10.30;;
69750;SDS011;57335;52.288;6.056;2023-02-13T08:11:21;33.92;;;11.07;;
69750;SDS011;57335;52.288;6.056;2023-02-13T08:13:53;33.75;;;11.13;;
69750;SDS011;57335;52.288;6.056;2023-02-13T08:16:19;30.10;;;10.02;;
69750;SDS011;57335;52.288;6.056;2023-02-13T08:18:45;28.23;;;9.65;;
69750;SDS011;57335;52.288;6.056;2023-02-13T08:21:12;29.80;;;10.23;;
69750;SDS011;57335;52.288;6.056;2023-02-13T08:23:38;29.90;;;10.10;;
69750;SDS011;57335;52.288;6.056;2023-02-13T08:26:04;30.85;;;10.95;;
69750;SDS011;57335;52.288;6.056;2023-02-13T08:28:31;31.05;;;10.07;;
69750;SDS011;57335;52.288;6.056;2023-02-13T08:30:57;34.58;;;10.65;;
69750;SDS011;57335;52.288;6.056;2023-02-13T08:33:24;32.70;;;11.48;;
69750;SDS011;57335;52.288;6.056;2023-02-13T08:35:50;34.58;;;11.85;;
69750;SDS011;57335;52.288;6.056;2023-02-13T08:38:16;35.25;;;11.27;;
69750;SDS011;57335;52.288;6.056;2023-02-13T08:40:43;33.97;;;11.52;;
69750;SDS011;57335;52.288;6.056;2023-02-13T08:43:09;28.80;;;10.32;;
69750;SDS011;57335;52.288;6.056;2023-02-13T08:45:35;28.38;;;10.82;;
69750;SDS011;57335;52.288;6.056;2023-02-13T08:48:02;32.65;;;10.93;;
69750;SDS011;57335;52.288;6.056;2023-02-13T08:50:28;38.25;;;12.32;;
69750;SDS011;57335;52.288;6.056;2023-02-13T08:52:56;34.22;;;11.68;;
69750;SDS011;57335;52.288;6.056;2023-02-13T08:55:23;31.35;;;11.18;;
69750;SDS011;57335;52.288;6.056;2023-02-13T08:57:49;34.28;;;11.63;;
69750;SDS011;57335;52.288;6.056;2023-02-13T09:00:15;33.53;;;11.98;;
69750;SDS011;57335;52.288;6.056;2023-02-13T09:02:42;35.30;;;12.35;;
69750;SDS011;57335;52.288;6.056;2023-02-13T09:05:08;35.97;;;12.98;;
69750;SDS011;57335;52.288;6.056;2023-02-13T09:07:35;32.85;;;12.88;;
69750;SDS011;57335;52.288;6.056;2023-02-13T09:10:01;37.10;;;12.55;;
69750;SDS011;57335;52.288;6.056;2023-02-13T09:12:27;37.85;;;13.00;;
69750;SDS011;57335;52.288;6.056;2023-02-13T09:14:54;39.00;;;13.15;;
69750;SDS011;57335;52.288;6.056;2023-02-13T09:17:20;37.13;;;13.25;;
69750;SDS011;57335;52.288;6.056;2023-02-13T09:19:46;37.67;;;13.75;;
69750;SDS011;57335;52.288;6.056;2023-02-13T09:22:13;39.63;;;14.10;;
69750;SDS011;57335;52.288;6.056;2023-02-13T09:24:40;41.20;;;14.38;;
69750;SDS011;57335;52.288;6.056;2023-02-13T09:27:06;39.08;;;14.32;;
69750;SDS011;57335;52.288;6.056;2023-02-13T09:29:33;38.25;;;14.90;;
69750;SDS011;57335;52.288;6.056;2023-02-13T09:31:59;37.38;;;14.70;;
69750;SDS011;57335;52.288;6.056;2023-02-13T09:34:26;41.20;;;14.55;;
69750;SDS011;57335;52.288;6.056;2023-02-13T09:36:52;38.58;;;14.50;;
69750;SDS011;57335;52.288;6.056;2023-02-13T09:39:19;38.83;;;14.35;;
69750;SDS011;57335;52.288;6.056;2023-02-13T09:41:46;36.08;;;13.85;;
69750;SDS011;57335;52.288;6.056;2023-02-13T09:46:53;39.65;;;15.05;;
69750;SDS011;57335;52.288;6.056;2023-02-13T09:49:20;40.05;;;14.75;;
69750;SDS011;57335;52.288;6.056;2023-02-13T09:51:54;40.13;;;14.48;;
69750;SDS011;57335;52.288;6.056;2023-02-13T09:54:22;36.60;;;14.52;;
69750;SDS011;57335;52.288;6.056;2023-02-13T09:57:00;35.20;;;13.50;;
69750;SDS011;57335;52.288;6.056;2023-02-13T09:59:38;37.20;;;13.60;;
69750;SDS011;57335;52.288;6.056;2023-02-13T10:08:53;37.85;;;13.48;;
69750;SDS011;57335;52.288;6.056;2023-02-13T10:16:40;30.65;;;11.55;;
69750;SDS011;57335;52.288;6.056;2023-02-13T10:24:32;31.33;;;11.98;;
69750;SDS011;57335;52.288;6.056;2023-02-13T10:27:23;31.67;;;12.32;;
69750;SDS011;57335;52.288;6.056;2023-02-13T10:29:57;34.58;;;12.32;;
69750;SDS011;57335;52.288;6.056;2023-02-13T10:35:26;35.35;;;12.93;;
69750;SDS011;57335;52.288;6.056;2023-02-13T10:37:56;31.23;;;12.65;;
69750;SDS011;57335;52.288;6.056;2023-02-13T10:40:31;33.28;;;11.27;;
69750;SDS011;57335;52.288;6.056;2023-02-13T10:43:06;33.50;;;13.27;;
69750;SDS011;57335;52.288;6.056;2023-02-13T10:51:03;35.58;;;12.45;;
69750;SDS011;57335;52.288;6.056;2023-02-13T10:56:42;31.27;;;11.80;;
69750;SDS011;57335;52.288;6.056;2023-02-13T11:05:38;26.90;;;10.48;;
69750;SDS011;57335;52.288;6.056;2023-02-13T11:07:44;24.90;;;9.15;;
69750;SDS011;57335;52.288;6.056;2023-02-13T11:12:46;31.20;;;11.48;;
69750;SDS011;57335;52.288;6.056;2023-02-13T11:17:47;29.58;;;11.57;;
69750;SDS011;57335;52.288;6.056;2023-02-13T11:20:32;27.35;;;9.43;;
69750;SDS011;57335;52.288;6.056;2023-02-13T11:23:16;28.05;;;10.93;;
69750;SDS011;57335;52.288;6.056;2023-02-13T11:25:56;30.50;;;10.82;;
69750;SDS011;57335;52.288;6.056;2023-02-13T11:28:26;29.80;;;11.43;;
69750;SDS011;57335;52.288;6.056;2023-02-13T11:31:07;25.88;;;10.23;;
69750;SDS011;57335;52.288;6.056;2023-02-13T11:33:36;24.30;;;9.60;;
69750;SDS011;57335;52.288;6.056;2023-02-13T11:36:08;25.95;;;9.98;;
69750;SDS011;57335;52.288;6.056;2023-02-13T11:38:38;27.30;;;10.63;;
69750;SDS011;57335;52.288;6.056;2023-02-13T11:41:14;22.67;;;8.95;;
69750;SDS011;57335;52.288;6.056;2023-02-13T11:43:55;29.83;;;10.05;;
69750;SDS011;57335;52.288;6.056;2023-02-13T11:46:24;29.23;;;10.50;;
69750;SDS011;57335;52.288;6.056;2023-02-13T11:49:01;28.88;;;11.32;;
69750;SDS011;57335;52.288;6.056;2023-02-13T11:51:34;28.88;;;11.25;;
69750;SDS011;57335;52.288;6.056;2023-02-13T11:54:02;26.13;;;9.95;;
69750;SDS011;57335;52.288;6.056;2023-02-13T11:56:35;29.75;;;11.60;;
69750;SDS011;57335;52.288;6.056;2023-02-13T11:59:31;28.92;;;11.57;;
69750;SDS011;57335;52.288;6.056;2023-02-13T12:02:15;28.60;;;11.80;;
69750;SDS011;57335;52.288;6.056;2023-02-13T12:04:45;29.45;;;11.90;;
69750;SDS011;57335;52.288;6.056;2023-02-13T12:15:22;27.63;;;12.05;;
69750;SDS011;57335;52.288;6.056;2023-02-13T12:17:52;28.52;;;11.68;;
69750;SDS011;57335;52.288;6.056;2023-02-13T12:20:29;30.52;;;11.57;;
69750;SDS011;57335;52.288;6.056;2023-02-13T12:26:33;28.48;;;11.48;;
69750;SDS011;57335;52.288;6.056;2023-02-13T12:34:33;29.98;;;13.13;;
69750;SDS011;57335;52.288;6.056;2023-02-13T12:37:31;29.23;;;12.63;;
69750;SDS011;57335;52.288;6.056;2023-02-13T12:54:43;31.45;;;13.80;;
69750;SDS011;57335;52.288;6.056;2023-02-13T13:03:20;29.38;;;11.95;;
69750;SDS011;57335;52.288;6.056;2023-02-13T13:09:09;36.60;;;15.88;;
69750;SDS011;57335;52.288;6.056;2023-02-13T13:14:40;32.25;;;13.90;;
69750;SDS011;57335;52.288;6.056;2023-02-13T13:17:20;28.63;;;12.45;;
69750;SDS011;57335;52.288;6.056;2023-02-13T13:22:34;29.45;;;14.40;;
69750;SDS011;57335;52.288;6.056;2023-02-13T13:27:57;33.25;;;13.80;;
69750;SDS011;57335;52.288;6.056;2023-02-13T13:30:29;30.40;;;11.90;;
69750;SDS011;57335;52.288;6.056;2023-02-13T13:33:23;30.48;;;13.60;;
69750;SDS011;57335;52.288;6.056;2023-02-13T13:41:49;32.88;;;14.20;;
69750;SDS011;57335;52.288;6.056;2023-02-13T13:44:46;32.97;;;14.27;;
69750;SDS011;57335;52.288;6.056;2023-02-13T13:50:35;31.30;;;13.80;;
69750;SDS011;57335;52.288;6.056;2023-02-13T13:58:55;29.75;;;11.82;;
69750;SDS011;57335;52.288;6.056;2023-02-13T14:03:45;32.65;;;14.13;;
69750;SDS011;57335;52.288;6.056;2023-02-13T14:06:21;32.97;;;13.50;;
69750;SDS011;57335;52.288;6.056;2023-02-13T14:08:54;34.38;;;15.32;;
69750;SDS011;57335;52.288;6.056;2023-02-13T14:11:42;30.23;;;13.38;;
69750;SDS011;57335;52.288;6.056;2023-02-13T14:16:54;30.70;;;14.30;;
69750;SDS011;57335;52.288;6.056;2023-02-13T14:19:32;35.22;;;14.18;;
69750;SDS011;57335;52.288;6.056;2023-02-13T14:24:49;33.15;;;14.32;;
69750;SDS011;57335;52.288;6.056;2023-02-13T14:27:19;33.50;;;13.95;;
69750;SDS011;57335;52.288;6.056;2023-02-13T14:29:48;33.38;;;14.52;;
69750;SDS011;57335;52.288;6.056;2023-02-13T14:32:16;32.75;;;14.23;;
69750;SDS011;57335;52.288;6.056;2023-02-13T14:34:51;30.88;;;12.27;;
69750;SDS011;57335;52.288;6.056;2023-02-13T14:37:23;31.25;;;12.85;;
69750;SDS011;57335;52.288;6.056;2023-02-13T14:42:43;31.90;;;14.85;;
69750;SDS011;57335;52.288;6.056;2023-02-13T14:45:13;31.98;;;14.23;;
69750;SDS011;57335;52.288;6.056;2023-02-13T14:47:44;34.65;;;14.52;;
69750;SDS011;57335;52.288;6.056;2023-02-13T14:50:23;32.67;;;14.10;;
69750;SDS011;57335;52.288;6.056;2023-02-13T14:52:53;30.88;;;14.00;;
69750;SDS011;57335;52.288;6.056;2023-02-13T14:55:30;34.47;;;14.50;;
69750;SDS011;57335;52.288;6.056;2023-02-13T14:58:06;32.35;;;14.43;;
69750;SDS011;57335;52.288;6.056;2023-02-13T15:00:42;31.58;;;13.40;;
69750;SDS011;57335;52.288;6.056;2023-02-13T15:06:10;34.83;;;15.60;;
69750;SDS011;57335;52.288;6.056;2023-02-13T15:08:46;36.20;;;15.25;;
69750;SDS011;57335;52.288;6.056;2023-02-13T15:14:15;34.25;;;15.48;;
69750;SDS011;57335;52.288;6.056;2023-02-13T15:16:47;34.80;;;15.27;;
69750;SDS011;57335;52.288;6.056;2023-02-13T15:19:17;37.08;;;15.07;;
69750;SDS011;57335;52.288;6.056;2023-02-13T15:21:56;35.78;;;15.65;;
69750;SDS011;57335;52.288;6.056;2023-02-13T15:24:29;34.90;;;15.45;;
69750;SDS011;57335;52.288;6.056;2023-02-13T15:27:03;36.45;;;14.90;;
69750;SDS011;57335;52.288;6.056;2023-02-13T15:29:32;31.90;;;13.98;;
69750;SDS011;57335;52.288;6.056;2023-02-13T15:32:18;35.97;;;14.77;;
69750;SDS011;57335;52.288;6.056;2023-02-13T15:34:46;36.33;;;15.70;;
69750;SDS011;57335;52.288;6.056;2023-02-13T15:37:23;32.88;;;13.88;;
69750;SDS011;57335;52.288;6.056;2023-02-13T15:39:52;33.78;;;14.68;;
69750;SDS011;57335;52.288;6.056;2023-02-13T15:42:19;37.47;;;15.23;;
69750;SDS011;57335;52.288;6.056;2023-02-13T15:44:47;35.05;;;16.10;;
69750;SDS011;57335;52.288;6.056;2023-02-13T15:47:24;34.47;;;14.60;;
69750;SDS011;57335;52.288;6.056;2023-02-13T15:49:53;35.90;;;15.07;;
69750;SDS011;57335;52.288;6.056;2023-02-13T15:54:56;35.83;;;15.88;;
69750;SDS011;57335;52.288;6.056;2023-02-13T15:57:23;33.63;;;14.20;;
69750;SDS011;57335;52.288;6.056;2023-02-13T15:59:52;36.50;;;15.48;;
69750;SDS011;57335;52.288;6.056;2023-02-13T16:02:21;40.28;;;16.25;;
69750;SDS011;57335;52.288;6.056;2023-02-13T16:04:53;37.28;;;14.88;;
69750;SDS011;57335;52.288;6.056;2023-02-13T16:07:21;38.97;;;16.38;;
69750;SDS011;57335;52.288;6.056;2023-02-13T16:09:47;36.88;;;14.70;;
69750;SDS011;57335;52.288;6.056;2023-02-13T16:12:24;40.83;;;16.33;;
69750;SDS011;57335;52.288;6.056;2023-02-13T16:14:52;42.53;;;16.48;;
69750;SDS011;57335;52.288;6.056;2023-02-13T16:17:29;45.88;;;18.30;;
69750;SDS011;57335;52.288;6.056;2023-02-13T16:20:03;39.80;;;16.10;;
69750;SDS011;57335;52.288;6.056;2023-02-13T16:22:42;38.15;;;16.48;;
69750;SDS011;57335;52.288;6.056;2023-02-13T16:27:45;36.97;;;15.05;;
69750;SDS011;57335;52.288;6.056;2023-02-13T16:30:30;40.60;;;16.17;;
69750;SDS011;57335;52.288;6.056;2023-02-13T16:35:42;43.72;;;17.45;;
69750;SDS011;57335;52.288;6.056;2023-02-13T16:40:54;37.47;;;16.30;;
69750;SDS011;57335;52.288;6.056;2023-02-13T16:51:07;41.38;;;17.00;;
69750;SDS011;57335;52.288;6.056;2023-02-13T16:53:34;45.08;;;17.92;;
69750;SDS011;57335;52.288;6.056;2023-02-13T16:56:03;42.40;;;17.38;;
69750;SDS011;57335;52.288;6.056;2023-02-13T16:58:33;41.90;;;15.82;;
69750;SDS011;57335;52.288;6.056;2023-02-13T17:00:59;39.53;;;15.88;;
69750;SDS011;57335;52.288;6.056;2023-02-13T17:03:27;38.60;;;15.52;;
69750;SDS011;57335;52.288;6.056;2023-02-13T17:05:54;41.22;;;15.40;;
69750;SDS011;57335;52.288;6.056;2023-02-13T17:08:20;44.05;;;17.50;;
69750;SDS011;57335;52.288;6.056;2023-02-13T17:11:06;41.33;;;15.15;;
69750;SDS011;57335;52.288;6.056;2023-02-13T17:13:33;35.28;;;13.88;;
69750;SDS011;57335;52.288;6.056;2023-02-13T17:15:59;40.65;;;15.38;;
69750;SDS011;57335;52.288;6.056;2023-02-13T17:18:26;41.22;;;15.73;;
69750;SDS011;57335;52.288;6.056;2023-02-13T17:20:53;43.25;;;16.05;;
69750;SDS011;57335;52.288;6.056;2023-02-13T17:23:20;41.08;;;16.40;;
69750;SDS011;57335;52.288;6.056;2023-02-13T17:25:49;45.90;;;17.20;;
69750;SDS011;57335;52.288;6.056;2023-02-13T17:28:18;46.47;;;17.77;;
69750;SDS011;57335;52.288;6.056;2023-02-13T17:30:47;47.35;;;16.67;;
69750;SDS011;57335;52.288;6.056;2023-02-13T17:33:20;46.13;;;16.73;;
69750;SDS011;57335;52.288;6.056;2023-02-13T17:38:14;41.90;;;15.10;;
69750;SDS011;57335;52.288;6.056;2023-02-13T17:40:42;46.45;;;17.10;;
69750;SDS011;57335;52.288;6.056;2023-02-13T17:43:12;42.00;;;14.43;;
69750;SDS011;57335;52.288;6.056;2023-02-13T17:45:40;37.75;;;14.48;;
69750;SDS011;57335;52.288;6.056;2023-02-13T17:48:07;47.97;;;16.95;;
69750;SDS011;57335;52.288;6.056;2023-02-13T17:50:34;35.00;;;12.98;;
69750;SDS011;57335;52.288;6.056;2023-02-13T17:53:05;33.05;;;12.48;;
69750;SDS011;57335;52.288;6.056;2023-02-13T17:55:33;49.47;;;16.15;;
69750;SDS011;57335;52.288;6.056;2023-02-13T17:58:00;43.88;;;15.75;;
69750;SDS011;57335;52.288;6.056;2023-02-13T18:00:29;47.47;;;15.85;;
69750;SDS011;57335;52.288;6.056;2023-02-13T18:02:57;46.97;;;16.83;;
69750;SDS011;57335;52.288;6.056;2023-02-13T18:05:24;44.03;;;15.75;;
69750;SDS011;57335;52.288;6.056;2023-02-13T18:07:50;52.53;;;16.73;;
69750;SDS011;57335;52.288;6.056;2023-02-13T18:10:21;50.60;;;16.98;;
69750;SDS011;57335;52.288;6.056;2023-02-13T18:12:52;50.95;;;17.67;;